sensor_id;sensor_type;location;lat;lon;timestamp;temperature;humidity
33414;DHT22;60055;41.884;12.534;2023-02-27T00:02:22;10.50;99.90
33414;DHT22;60055;41.884;12.534;2023-02-27T00:04:48;10.50;99.90
33414;DHT22;60055;41.884;12.534;2023-02-27T00:07:15;10.50;99.90
33414;DHT22;60055;41.884;12.534;2023-02-27T00:09:41;10.50;99.90
33414;DHT22;60055;41.884;12.534;2023-02-27T00:12:07;10.50;99.90
33414;DHT22;60055;41.884;12.534;2023-02-27T00:14:33;10.50;99.90
33414;DHT22;60055;41.884;12.534;2023-02-27T00:16:58;10.50;99.90
33414;DHT22;60055;41.884;12.534;2023-02-27T00:19:24;10.40;99.90
33414;DHT22;60055;41.884;12.534;2023-02-27T00:21:50;10.40;99.90
33414;DHT22;60055;41.884;12.534;2023-02-27T00:24:15;10.40;99.90
33414;DHT22;60055;41.884;12.534;2023-02-27T00:26:43;10.60;99.90
33414;DHT22;60055;41.884;12.534;2023-02-27T00:29:10;10.60;99.90
33414;DHT22;60055;41.884;12.534;2023-02-27T00:31:35;10.50;99.90
33414;DHT22;60055;41.884;12.534;2023-02-27T00:34:01;10.50;99.90
33414;DHT22;60055;41.884;12.534;2023-02-27T00:36:27;10.40;99.90
33414;DHT22;60055;41.884;12.534;2023-02-27T00:38:52;10.50;99.90
33414;DHT22;60055;41.884;12.534;2023-02-27T00:41:18;10.40;99.90
33414;DHT22;60055;41.884;12.534;2023-02-27T00:43:44;10.40;99.90
33414;DHT22;60055;41.884;12.534;2023-02-27T00:46:09;10.40;99.90
33414;DHT22;60055;41.884;12.534;2023-02-27T00:48:35;10.40;99.90
33414;DHT22;60055;41.884;12.534;2023-02-27T00:51:01;10.40;99.90
33414;DHT22;60055;41.884;12.534;2023-02-27T00:53:26;10.60;99.90
33414;DHT22;60055;41.884;12.534;2023-02-27T00:55:52;10.50;99.90
33414;DHT22;60055;41.884;12.534;2023-02-27T00:58:18;10.60;99.90
33414;DHT22;60055;41.884;12.534;2023-02-27T01:00:44;10.50;99.90
33414;DHT22;60055;41.884;12.534;2023-02-27T01:03:09;10.50;99.90
33414;DHT22;60055;41.884;12.534;2023-02-27T01:05:35;10.60;99.90
33414;DHT22;60055;41.884;12.534;2023-02-27T01:08:01;10.60;99.90
33414;DHT22;60055;41.884;12.534;2023-02-27T01:10:27;10.50;99.90
33414;DHT22;60055;41.884;12.534;2023-02-27T01:12:52;10.50;99.90
33414;DHT22;60055;41.884;12.534;2023-02-27T01:15:18;10.40;99.90
33414;DHT22;60055;41.884;12.534;2023-02-27T01:17:45;10.50;99.90
33414;DHT22;60055;41.884;12.534;2023-02-27T01:20:12;10.30;99.90
33414;DHT22;60055;41.884;12.534;2023-02-27T01:22:38;10.20;99.90
33414;DHT22;60055;41.884;12.534;2023-02-27T01:25:04;10.20;99.90
33414;DHT22;60055;41.884;12.534;2023-02-27T01:27:30;10.10;99.90
33414;DHT22;60055;41.884;12.534;2023-02-27T01:29:55;10.00;99.90
33414;DHT22;60055;41.884;12.534;2023-02-27T01:32:21;9.90;99.90
33414;DHT22;60055;41.884;12.534;2023-02-27T01:34:49;9.90;99.90
33414;DHT22;60055;41.884;12.534;2023-02-27T01:37:18;9.80;99.90
33414;DHT22;60055;41.884;12.534;2023-02-27T01:39:44;9.90;99.90
33414;DHT22;60055;41.884;12.534;2023-02-27T01:42:27;9.80;99.90
33414;DHT22;60055;41.884;12.534;2023-02-27T01:47:41;9.80;99.90
33414;DHT22;60055;41.884;12.534;2023-02-27T01:50:09;9.80;99.90
33414;DHT22;60055;41.884;12.534;2023-02-27T01:52:36;9.90;99.90
33414;DHT22;60055;41.884;12.534;2023-02-27T01:55:04;9.70;99.90
33414;DHT22;60055;41.884;12.534;2023-02-27T01:57:33;9.80;99.90
33414;DHT22;60055;41.884;12.534;2023-02-27T01:59:59;10.00;99.90
33414;DHT22;60055;41.884;12.534;2023-02-27T02:02:33;9.90;99.90
33414;DHT22;60055;41.884;12.534;2023-02-27T02:05:00;9.80;99.90
33414;DHT22;60055;41.884;12.534;2023-02-27T02:07:26;10.10;99.90
33414;DHT22;60055;41.884;12.534;2023-02-27T02:09:55;10.20;99.90
33414;DHT22;60055;41.884;12.534;2023-02-27T02:12:28;10.30;99.90
33414;DHT22;60055;41.884;12.534;2023-02-27T02:14:54;10.50;99.90
33414;DHT22;60055;41.884;12.534;2023-02-27T02:20:47;9.90;99.90
33414;DHT22;60055;41.884;12.534;2023-02-27T02:29:00;9.70;99.90
33414;DHT22;60055;41.884;12.534;2023-02-27T02:35:06;9.80;99.90
33414;DHT22;60055;41.884;12.534;2023-02-27T02:43:40;10.00;99.90
33414;DHT22;60055;41.884;12.534;2023-02-27T02:48:53;9.80;99.90
33414;DHT22;60055;41.884;12.534;2023-02-27T02:54:04;9.80;99.90
33414;DHT22;60055;41.884;12.534;2023-02-27T02:59:26;9.90;99.90
33414;DHT22;60055;41.884;12.534;2023-02-27T03:02:04;10.00;99.90
33414;DHT22;60055;41.884;12.534;2023-02-27T03:04:41;10.00;99.90
33414;DHT22;60055;41.884;12.534;2023-02-27T03:07:16;10.00;99.90
33414;DHT22;60055;41.884;12.534;2023-02-27T03:09:52;10.10;99.90
33414;DHT22;60055;41.884;12.534;2023-02-27T03:12:21;10.10;99.90
33414;DHT22;60055;41.884;12.534;2023-02-27T03:15:05;10.10;99.90
33414;DHT22;60055;41.884;12.534;2023-02-27T03:20:05;10.00;99.90
33414;DHT22;60055;41.884;12.534;2023-02-27T03:22:38;10.10;99.90
33414;DHT22;60055;41.884;12.534;2023-02-27T03:25:07;10.10;99.90
33414;DHT22;60055;41.884;12.534;2023-02-27T03:27:37;10.20;99.90
33414;DHT22;60055;41.884;12.534;2023-02-27T03:30:11;10.10;99.90
33414;DHT22;60055;41.884;12.534;2023-02-27T03:32:55;10.10;99.90
33414;DHT22;60055;41.884;12.534;2023-02-27T03:35:28;10.10;99.90
33414;DHT22;60055;41.884;12.534;2023-02-27T03:38:24;10.20;99.90
33414;DHT22;60055;41.884;12.534;2023-02-27T03:40:58;10.20;99.90
33414;DHT22;60055;41.884;12.534;2023-02-27T03:43:36;10.00;99.90
33414;DHT22;60055;41.884;12.534;2023-02-27T03:46:16;9.90;99.90
33414;DHT22;60055;41.884;12.534;2023-02-27T03:48:44;9.80;99.90
33414;DHT22;60055;41.884;12.534;2023-02-27T03:51:15;9.80;99.90
33414;DHT22;60055;41.884;12.534;2023-02-27T03:56:41;9.80;99.90
33414;DHT22;60055;41.884;12.534;2023-02-27T03:59:09;9.80;99.90
33414;DHT22;60055;41.884;12.534;2023-02-27T04:01:35;9.90;99.90
33414;DHT22;60055;41.884;12.534;2023-02-27T04:04:14;10.00;99.90
33414;DHT22;60055;41.884;12.534;2023-02-27T04:06:45;10.00;99.90
33414;DHT22;60055;41.884;12.534;2023-02-27T04:17:31;9.80;99.90
33414;DHT22;60055;41.884;12.534;2023-02-27T04:22:58;9.90;99.90
33414;DHT22;60055;41.884;12.534;2023-02-27T04:28:29;9.80;99.90
33414;DHT22;60055;41.884;12.534;2023-02-27T04:31:08;9.80;99.90
33414;DHT22;60055;41.884;12.534;2023-02-27T04:33:48;10.00;99.90
33414;DHT22;60055;41.884;12.534;2023-02-27T04:36:39;9.90;99.90
33414;DHT22;60055;41.884;12.534;2023-02-27T04:39:33;9.80;99.90
33414;DHT22;60055;41.884;12.534;2023-02-27T04:42:02;9.70;99.90
33414;DHT22;60055;41.884;12.534;2023-02-27T04:44:30;9.70;99.90
33414;DHT22;60055;41.884;12.534;2023-02-27T04:46:57;9.80;99.90
33414;DHT22;60055;41.884;12.534;2023-02-27T04:49:41;9.70;99.90
33414;DHT22;60055;41.884;12.534;2023-02-27T04:52:19;9.80;99.90
33414;DHT22;60055;41.884;12.534;2023-02-27T04:57:41;9.90;99.90
33414;DHT22;60055;41.884;12.534;2023-02-27T05:00:11;9.90;99.90
33414;DHT22;60055;41.884;12.534;2023-02-27T05:02:53;9.80;99.90
33414;DHT22;60055;41.884;12.534;2023-02-27T05:05:26;9.90;99.90
33414;DHT22;60055;41.884;12.534;2023-02-27T05:08:08;9.80;99.90
33414;DHT22;60055;41.884;12.534;2023-02-27T05:10:49;9.90;99.90
33414;DHT22;60055;41.884;12.534;2023-02-27T05:13:40;9.80;99.90
33414;DHT22;60055;41.884;12.534;2023-02-27T05:16:20;9.60;99.90
33414;DHT22;60055;41.884;12.534;2023-02-27T05:18:48;10.00;99.90
33414;DHT22;60055;41.884;12.534;2023-02-27T05:21:40;10.00;99.90
33414;DHT22;60055;41.884;12.534;2023-02-27T05:27:05;10.00;99.90
33414;DHT22;60055;41.884;12.534;2023-02-27T05:30:00;9.90;99.90
33414;DHT22;60055;41.884;12.534;2023-02-27T05:32:51;10.00;99.90
33414;DHT22;60055;41.884;12.534;2023-02-27T05:35:27;10.00;99.90
33414;DHT22;60055;41.884;12.534;2023-02-27T05:37:58;9.90;99.90
33414;DHT22;60055;41.884;12.534;2023-02-27T05:40:31;9.80;99.90
33414;DHT22;60055;41.884;12.534;2023-02-27T05:43:19;9.80;99.90
33414;DHT22;60055;41.884;12.534;2023-02-27T05:45:49;10.00;99.90
33414;DHT22;60055;41.884;12.534;2023-02-27T05:48:25;9.90;99.90
33414;DHT22;60055;41.884;12.534;2023-02-27T05:50:52;9.90;99.90
33414;DHT22;60055;41.884;12.534;2023-02-27T05:53:21;9.80;99.90
33414;DHT22;60055;41.884;12.534;2023-02-27T05:55:51;9.60;99.90
33414;DHT22;60055;41.884;12.534;2023-02-27T05:58:27;9.60;99.90
33414;DHT22;60055;41.884;12.534;2023-02-27T06:00:57;9.80;99.90
33414;DHT22;60055;41.884;12.534;2023-02-27T06:03:24;9.70;99.90
33414;DHT22;60055;41.884;12.534;2023-02-27T06:05:52;9.60;99.90
33414;DHT22;60055;41.884;12.534;2023-02-27T06:08:19;9.70;99.90
33414;DHT22;60055;41.884;12.534;2023-02-27T06:10:46;9.70;99.90
33414;DHT22;60055;41.884;12.534;2023-02-27T06:13:13;9.50;99.90
33414;DHT22;60055;41.884;12.534;2023-02-27T06:15:39;9.60;99.90
33414;DHT22;60055;41.884;12.534;2023-02-27T06:18:04;9.80;99.90
33414;DHT22;60055;41.884;12.534;2023-02-27T06:20:30;10.00;99.90
33414;DHT22;60055;41.884;12.534;2023-02-27T06:22:56;10.10;99.90
33414;DHT22;60055;41.884;12.534;2023-02-27T06:25:22;10.00;99.90
33414;DHT22;60055;41.884;12.534;2023-02-27T06:27:47;10.10;99.90
33414;DHT22;60055;41.884;12.534;2023-02-27T06:30:13;10.00;99.90
33414;DHT22;60055;41.884;12.534;2023-02-27T06:32:39;10.00;99.90
33414;DHT22;60055;41.884;12.534;2023-02-27T06:35:05;10.10;99.90
33414;DHT22;60055;41.884;12.534;2023-02-27T06:37:31;10.20;99.90
33414;DHT22;60055;41.884;12.534;2023-02-27T06:39:57;10.20;99.90
33414;DHT22;60055;41.884;12.534;2023-02-27T06:42:23;10.20;99.90
33414;DHT22;60055;41.884;12.534;2023-02-27T06:44:49;10.30;99.90
33414;DHT22;60055;41.884;12.534;2023-02-27T06:47:15;10.40;99.90
33414;DHT22;60055;41.884;12.534;2023-02-27T06:49:40;10.30;99.90
33414;DHT22;60055;41.884;12.534;2023-02-27T06:52:06;10.30;99.90
33414;DHT22;60055;41.884;12.534;2023-02-27T06:54:32;10.30;99.90
33414;DHT22;60055;41.884;12.534;2023-02-27T06:56:58;10.00;99.90
33414;DHT22;60055;41.884;12.534;2023-02-27T06:59:24;10.20;99.90
33414;DHT22;60055;41.884;12.534;2023-02-27T07:01:50;10.60;99.90
33414;DHT22;60055;41.884;12.534;2023-02-27T07:04:16;10.60;99.90
33414;DHT22;60055;41.884;12.534;2023-02-27T07:06:43;10.60;99.90
33414;DHT22;60055;41.884;12.534;2023-02-27T07:09:09;10.50;99.90
33414;DHT22;60055;41.884;12.534;2023-02-27T07:11:34;10.50;99.90
33414;DHT22;60055;41.884;12.534;2023-02-27T07:14:00;10.60;99.90
33414;DHT22;60055;41.884;12.534;2023-02-27T07:16:26;10.50;99.90
33414;DHT22;60055;41.884;12.534;2023-02-27T07:18:51;10.60;99.90
33414;DHT22;60055;41.884;12.534;2023-02-27T07:21:17;10.30;99.90
33414;DHT22;60055;41.884;12.534;2023-02-27T07:23:44;10.40;99.90
33414;DHT22;60055;41.884;12.534;2023-02-27T07:26:10;10.50;99.90
33414;DHT22;60055;41.884;12.534;2023-02-27T07:28:36;10.20;99.90
33414;DHT22;60055;41.884;12.534;2023-02-27T07:31:02;10.40;99.90
33414;DHT22;60055;41.884;12.534;2023-02-27T07:33:27;10.30;99.90
33414;DHT22;60055;41.884;12.534;2023-02-27T07:35:53;10.50;99.90
33414;DHT22;60055;41.884;12.534;2023-02-27T07:38:18;10.50;99.90
33414;DHT22;60055;41.884;12.534;2023-02-27T07:40:47;10.70;99.90
33414;DHT22;60055;41.884;12.534;2023-02-27T07:43:13;11.00;99.90
33414;DHT22;60055;41.884;12.534;2023-02-27T07:45:42;10.90;99.90
33414;DHT22;60055;41.884;12.534;2023-02-27T07:48:07;10.90;99.90
33414;DHT22;60055;41.884;12.534;2023-02-27T07:50:33;10.90;99.90
33414;DHT22;60055;41.884;12.534;2023-02-27T07:52:58;11.40;99.90
33414;DHT22;60055;41.884;12.534;2023-02-27T07:55:24;11.80;99.90
33414;DHT22;60055;41.884;12.534;2023-02-27T07:57:50;12.00;99.90
33414;DHT22;60055;41.884;12.534;2023-02-27T08:00:16;12.00;99.90
33414;DHT22;60055;41.884;12.534;2023-02-27T08:02:42;11.60;99.90
33414;DHT22;60055;41.884;12.534;2023-02-27T08:05:10;11.50;99.90
33414;DHT22;60055;41.884;12.534;2023-02-27T08:07:36;11.90;99.90
33414;DHT22;60055;41.884;12.534;2023-02-27T08:10:03;12.50;99.90
33414;DHT22;60055;41.884;12.534;2023-02-27T08:12:29;12.90;99.90
33414;DHT22;60055;41.884;12.534;2023-02-27T08:14:55;13.00;99.90
33414;DHT22;60055;41.884;12.534;2023-02-27T08:17:20;13.30;99.90
33414;DHT22;60055;41.884;12.534;2023-02-27T08:19:46;13.30;99.90
33414;DHT22;60055;41.884;12.534;2023-02-27T08:22:12;13.50;99.90
33414;DHT22;60055;41.884;12.534;2023-02-27T08:24:38;13.60;99.90
33414;DHT22;60055;41.884;12.534;2023-02-27T08:27:05;14.10;99.90
33414;DHT22;60055;41.884;12.534;2023-02-27T08:29:31;14.10;99.90
33414;DHT22;60055;41.884;12.534;2023-02-27T08:31:58;14.10;99.90
33414;DHT22;60055;41.884;12.534;2023-02-27T08:34:23;14.20;99.90
33414;DHT22;60055;41.884;12.534;2023-02-27T08:36:50;14.30;99.90
33414;DHT22;60055;41.884;12.534;2023-02-27T08:39:16;14.50;99.90
33414;DHT22;60055;41.884;12.534;2023-02-27T08:41:44;14.60;99.90
33414;DHT22;60055;41.884;12.534;2023-02-27T08:44:13;14.40;99.90
33414;DHT22;60055;41.884;12.534;2023-02-27T08:46:38;14.40;99.90
33414;DHT22;60055;41.884;12.534;2023-02-27T08:49:04;14.60;99.90
33414;DHT22;60055;41.884;12.534;2023-02-27T08:51:30;14.60;99.90
33414;DHT22;60055;41.884;12.534;2023-02-27T08:53:55;14.50;99.90
33414;DHT22;60055;41.884;12.534;2023-02-27T08:56:26;14.50;99.90
33414;DHT22;60055;41.884;12.534;2023-02-27T08:58:52;14.50;99.90
33414;DHT22;60055;41.884;12.534;2023-02-27T09:01:19;14.60;99.90
33414;DHT22;60055;41.884;12.534;2023-02-27T09:03:44;14.90;99.90
33414;DHT22;60055;41.884;12.534;2023-02-27T09:06:10;14.90;99.90
33414;DHT22;60055;41.884;12.534;2023-02-27T09:08:36;15.10;99.90
33414;DHT22;60055;41.884;12.534;2023-02-27T09:11:02;15.20;99.90
33414;DHT22;60055;41.884;12.534;2023-02-27T09:13:28;14.60;99.90
33414;DHT22;60055;41.884;12.534;2023-02-27T09:15:54;14.80;99.90
33414;DHT22;60055;41.884;12.534;2023-02-27T09:18:20;15.20;99.90
33414;DHT22;60055;41.884;12.534;2023-02-27T09:20:48;15.30;99.90
33414;DHT22;60055;41.884;12.534;2023-02-27T09:23:15;15.20;99.90
33414;DHT22;60055;41.884;12.534;2023-02-27T09:25:41;15.40;99.90
33414;DHT22;60055;41.884;12.534;2023-02-27T09:28:07;15.50;99.90
33414;DHT22;60055;41.884;12.534;2023-02-27T09:30:32;15.20;99.90
33414;DHT22;60055;41.884;12.534;2023-02-27T09:32:58;15.60;99.90
33414;DHT22;60055;41.884;12.534;2023-02-27T09:35:23;15.80;99.90
33414;DHT22;60055;41.884;12.534;2023-02-27T09:37:49;15.20;99.90
33414;DHT22;60055;41.884;12.534;2023-02-27T09:40:27;15.10;99.90
33414;DHT22;60055;41.884;12.534;2023-02-27T09:42:56;14.70;99.90
33414;DHT22;60055;41.884;12.534;2023-02-27T09:45:27;14.40;99.90
33414;DHT22;60055;41.884;12.534;2023-02-27T09:50:38;14.80;99.90
33414;DHT22;60055;41.884;12.534;2023-02-27T09:53:08;15.10;99.90
33414;DHT22;60055;41.884;12.534;2023-02-27T09:55:39;15.20;99.90
33414;DHT22;60055;41.884;12.534;2023-02-27T10:01:24;15.30;99.90
33414;DHT22;60055;41.884;12.534;2023-02-27T10:12:08;15.30;99.90
33414;DHT22;60055;41.884;12.534;2023-02-27T10:14:51;15.10;99.90
33414;DHT22;60055;41.884;12.534;2023-02-27T10:17:26;15.20;99.90
33414;DHT22;60055;41.884;12.534;2023-02-27T10:19:53;15.50;99.90
33414;DHT22;60055;41.884;12.534;2023-02-27T10:22:45;15.80;99.90
33414;DHT22;60055;41.884;12.534;2023-02-27T10:25:14;15.80;99.90
33414;DHT22;60055;41.884;12.534;2023-02-27T10:27:43;15.70;99.90
33414;DHT22;60055;41.884;12.534;2023-02-27T10:32:46;14.70;99.90
33414;DHT22;60055;41.884;12.534;2023-02-27T10:35:37;14.70;99.90
33414;DHT22;60055;41.884;12.534;2023-02-27T10:38:05;14.90;99.90
33414;DHT22;60055;41.884;12.534;2023-02-27T10:40:34;15.00;99.90
33414;DHT22;60055;41.884;12.534;2023-02-27T10:43:01;15.30;99.90
33414;DHT22;60055;41.884;12.534;2023-02-27T10:45:28;15.40;99.90
33414;DHT22;60055;41.884;12.534;2023-02-27T10:47:54;15.50;99.90
33414;DHT22;60055;41.884;12.534;2023-02-27T10:50:26;15.50;99.90
33414;DHT22;60055;41.884;12.534;2023-02-27T10:52:55;15.70;99.90
33414;DHT22;60055;41.884;12.534;2023-02-27T10:57:54;15.40;99.90
33414;DHT22;60055;41.884;12.534;2023-02-27T11:02:58;15.00;99.90
33414;DHT22;60055;41.884;12.534;2023-02-27T11:05:27;14.70;99.90
33414;DHT22;60055;41.884;12.534;2023-02-27T11:07:56;14.80;99.90
33414;DHT22;60055;41.884;12.534;2023-02-27T11:10:25;14.80;99.90
33414;DHT22;60055;41.884;12.534;2023-02-27T11:12:58;14.70;99.90
33414;DHT22;60055;41.884;12.534;2023-02-27T11:15:27;14.80;99.90
33414;DHT22;60055;41.884;12.534;2023-02-27T11:17:54;14.80;99.90
33414;DHT22;60055;41.884;12.534;2023-02-27T11:20:47;14.80;99.90
33414;DHT22;60055;41.884;12.534;2023-02-27T11:23:24;14.70;99.90
33414;DHT22;60055;41.884;12.534;2023-02-27T11:25:54;15.00;99.90
33414;DHT22;60055;41.884;12.534;2023-02-27T11:28:33;15.20;99.90
33414;DHT22;60055;41.884;12.534;2023-02-27T11:31:14;15.20;99.90
33414;DHT22;60055;41.884;12.534;2023-02-27T11:34:02;14.90;99.90
33414;DHT22;60055;41.884;12.534;2023-02-27T11:36:50;15.10;99.90
33414;DHT22;60055;41.884;12.534;2023-02-27T11:39:25;15.40;99.90
33414;DHT22;60055;41.884;12.534;2023-02-27T11:41:53;15.60;99.90
33414;DHT22;60055;41.884;12.534;2023-02-27T11:44:24;15.60;99.90
33414;DHT22;60055;41.884;12.534;2023-02-27T11:47:05;15.80;99.90
33414;DHT22;60055;41.884;12.534;2023-02-27T11:49:40;15.60;99.90
33414;DHT22;60055;41.884;12.534;2023-02-27T11:52:21;15.60;99.90
33414;DHT22;60055;41.884;12.534;2023-02-27T11:54:54;15.90;99.90
33414;DHT22;60055;41.884;12.534;2023-02-27T11:57:31;16.10;99.90
33414;DHT22;60055;41.884;12.534;2023-02-27T12:02:47;16.20;99.90
33414;DHT22;60055;41.884;12.534;2023-02-27T12:05:20;16.20;99.90
33414;DHT22;60055;41.884;12.534;2023-02-27T12:07:51;16.10;99.90
33414;DHT22;60055;41.884;12.534;2023-02-27T12:10:26;15.60;99.90
33414;DHT22;60055;41.884;12.534;2023-02-27T12:12:54;15.40;99.90
33414;DHT22;60055;41.884;12.534;2023-02-27T12:20:37;15.10;99.90
33414;DHT22;60055;41.884;12.534;2023-02-27T12:23:14;15.00;99.90
33414;DHT22;60055;41.884;12.534;2023-02-27T12:25:49;15.20;99.90
33414;DHT22;60055;41.884;12.534;2023-02-27T12:33:56;15.20;99.90
33414;DHT22;60055;41.884;12.534;2023-02-27T12:36:23;15.50;99.90
33414;DHT22;60055;41.884;12.534;2023-02-27T12:38:49;15.80;99.90
33414;DHT22;60055;41.884;12.534;2023-02-27T12:46:45;15.80;99.90
33414;DHT22;60055;41.884;12.534;2023-02-27T12:51:58;15.50;99.90
33414;DHT22;60055;41.884;12.534;2023-02-27T12:57:38;15.70;99.90
33414;DHT22;60055;41.884;12.534;2023-02-27T13:00:20;15.60;99.90
33414;DHT22;60055;41.884;12.534;2023-02-27T13:13:41;15.40;99.90
33414;DHT22;60055;41.884;12.534;2023-02-27T13:16:25;15.60;99.90
33414;DHT22;60055;41.884;12.534;2023-02-27T13:21:27;15.50;99.90
33414;DHT22;60055;41.884;12.534;2023-02-27T13:26:50;15.40;99.90
33414;DHT22;60055;41.884;12.534;2023-02-27T13:29:21;15.20;99.90
33414;DHT22;60055;41.884;12.534;2023-02-27T13:31:56;15.20;99.90
33414;DHT22;60055;41.884;12.534;2023-02-27T13:34:36;14.90;99.90
33414;DHT22;60055;41.884;12.534;2023-02-27T13:37:05;14.70;99.90
33414;DHT22;60055;41.884;12.534;2023-02-27T13:39:50;14.70;99.90
33414;DHT22;60055;41.884;12.534;2023-02-27T13:44:58;14.50;99.90
33414;DHT22;60055;41.884;12.534;2023-02-27T13:49:56;14.30;99.90
33414;DHT22;60055;41.884;12.534;2023-02-27T13:52:48;14.20;99.90
33414;DHT22;60055;41.884;12.534;2023-02-27T13:55:28;13.90;99.90
33414;DHT22;60055;41.884;12.534;2023-02-27T13:57:59;14.00;99.90
33414;DHT22;60055;41.884;12.534;2023-02-27T14:00:29;14.00;99.90
33414;DHT22;60055;41.884;12.534;2023-02-27T14:02:58;14.10;99.90
33414;DHT22;60055;41.884;12.534;2023-02-27T14:05:32;14.20;99.90
33414;DHT22;60055;41.884;12.534;2023-02-27T14:10:38;14.20;99.90
33414;DHT22;60055;41.884;12.534;2023-02-27T14:13:29;14.30;99.90
33414;DHT22;60055;41.884;12.534;2023-02-27T14:15:54;14.20;99.90
33414;DHT22;60055;41.884;12.534;2023-02-27T14:18:55;14.40;99.90
33414;DHT22;60055;41.884;12.534;2023-02-27T14:27:16;14.40;99.90
33414;DHT22;60055;41.884;12.534;2023-02-27T14:29:46;14.60;99.90
33414;DHT22;60055;41.884;12.534;2023-02-27T14:32:20;14.60;99.90
33414;DHT22;60055;41.884;12.534;2023-02-27T14:34:47;14.60;99.90
33414;DHT22;60055;41.884;12.534;2023-02-27T14:37:18;14.60;99.90
33414;DHT22;60055;41.884;12.534;2023-02-27T14:39:48;14.70;99.90
33414;DHT22;60055;41.884;12.534;2023-02-27T14:45:02;14.50;99.90
33414;DHT22;60055;41.884;12.534;2023-02-27T14:47:37;14.70;99.90
33414;DHT22;60055;41.884;12.534;2023-02-27T14:50:06;14.90;99.90
33414;DHT22;60055;41.884;12.534;2023-02-27T14:52:44;14.90;99.90
33414;DHT22;60055;41.884;12.534;2023-02-27T14:55:23;14.90;99.90
33414;DHT22;60055;41.884;12.534;2023-02-27T14:58:15;15.00;99.90
33414;DHT22;60055;41.884;12.534;2023-02-27T15:03:47;14.80;99.90
33414;DHT22;60055;41.884;12.534;2023-02-27T15:06:23;14.80;99.90
33414;DHT22;60055;41.884;12.534;2023-02-27T15:08:52;15.00;99.90
33414;DHT22;60055;41.884;12.534;2023-02-27T15:11:20;15.20;99.90
33414;DHT22;60055;41.884;12.534;2023-02-27T15:13:53;15.10;99.90
33414;DHT22;60055;41.884;12.534;2023-02-27T15:18:53;15.00;99.90
33414;DHT22;60055;41.884;12.534;2023-02-27T15:21:21;14.90;99.90
33414;DHT22;60055;41.884;12.534;2023-02-27T15:24:23;14.70;99.90
33414;DHT22;60055;41.884;12.534;2023-02-27T15:27:10;14.30;99.90
33414;DHT22;60055;41.884;12.534;2023-02-27T15:29:40;14.00;99.90
33414;DHT22;60055;41.884;12.534;2023-02-27T15:32:07;13.60;99.90
33414;DHT22;60055;41.884;12.534;2023-02-27T15:34:42;13.60;99.90
33414;DHT22;60055;41.884;12.534;2023-02-27T15:37:21;13.90;99.90
33414;DHT22;60055;41.884;12.534;2023-02-27T15:39:48;13.90;99.90
33414;DHT22;60055;41.884;12.534;2023-02-27T15:42:15;13.70;99.90
33414;DHT22;60055;41.884;12.534;2023-02-27T15:44:43;13.50;99.90
33414;DHT22;60055;41.884;12.534;2023-02-27T15:47:13;13.40;99.90
33414;DHT22;60055;41.884;12.534;2023-02-27T15:49:40;13.10;99.90
33414;DHT22;60055;41.884;12.534;2023-02-27T15:52:26;13.00;99.90
33414;DHT22;60055;41.884;12.534;2023-02-27T15:55:00;13.00;99.90
33414;DHT22;60055;41.884;12.534;2023-02-27T15:57:26;13.00;99.90
33414;DHT22;60055;41.884;12.534;2023-02-27T15:59:54;12.90;99.90
33414;DHT22;60055;41.884;12.534;2023-02-27T16:02:28;13.20;99.90
33414;DHT22;60055;41.884;12.534;2023-02-27T16:04:55;13.10;99.90
33414;DHT22;60055;41.884;12.534;2023-02-27T16:07:23;13.20;99.90
33414;DHT22;60055;41.884;12.534;2023-02-27T16:09:53;13.00;99.90
33414;DHT22;60055;41.884;12.534;2023-02-27T16:15:22;13.00;99.90
33414;DHT22;60055;41.884;12.534;2023-02-27T16:20:46;12.80;99.90
33414;DHT22;60055;41.884;12.534;2023-02-27T16:23:22;12.80;99.90
33414;DHT22;60055;41.884;12.534;2023-02-27T16:28:57;12.60;99.90
33414;DHT22;60055;41.884;12.534;2023-02-27T16:31:38;12.70;99.90
33414;DHT22;60055;41.884;12.534;2023-02-27T16:34:33;12.50;99.90
33414;DHT22;60055;41.884;12.534;2023-02-27T16:37:03;12.40;99.90
33414;DHT22;60055;41.884;12.534;2023-02-27T16:39:30;12.30;99.90
33414;DHT22;60055;41.884;12.534;2023-02-27T16:41:58;12.40;99.90
33414;DHT22;60055;41.884;12.534;2023-02-27T16:44:24;12.40;99.90
33414;DHT22;60055;41.884;12.534;2023-02-27T16:46:51;12.40;99.90
33414;DHT22;60055;41.884;12.534;2023-02-27T16:49:25;12.40;99.90
33414;DHT22;60055;41.884;12.534;2023-02-27T16:51:51;12.10;99.90
33414;DHT22;60055;41.884;12.534;2023-02-27T16:54:17;12.10;99.90
33414;DHT22;60055;41.884;12.534;2023-02-27T16:56:46;12.30;99.90
33414;DHT22;60055;41.884;12.534;2023-02-27T17:01:51;12.10;99.90
33414;DHT22;60055;41.884;12.534;2023-02-27T17:04:16;12.00;99.90
33414;DHT22;60055;41.884;12.534;2023-02-27T17:06:42;12.10;99.90
33414;DHT22;60055;41.884;12.534;2023-02-27T17:09:10;12.10;99.90
33414;DHT22;60055;41.884;12.534;2023-02-27T17:11:35;12.20;99.90
33414;DHT22;60055;41.884;12.534;2023-02-27T17:14:01;11.90;99.90
33414;DHT22;60055;41.884;12.534;2023-02-27T17:16:27;11.90;99.90
33414;DHT22;60055;41.884;12.534;2023-02-27T17:18:53;12.10;99.90
33414;DHT22;60055;41.884;12.534;2023-02-27T17:21:19;12.10;99.90
33414;DHT22;60055;41.884;12.534;2023-02-27T17:23:48;12.10;99.90
33414;DHT22;60055;41.884;12.534;2023-02-27T17:26:13;12.00;99.90
33414;DHT22;60055;41.884;12.534;2023-02-27T17:28:40;12.00;99.90
33414;DHT22;60055;41.884;12.534;2023-02-27T17:31:10;12.00;99.90
33414;DHT22;60055;41.884;12.534;2023-02-27T17:33:36;11.90;99.90
33414;DHT22;60055;41.884;12.534;2023-02-27T17:36:04;11.90;99.90
33414;DHT22;60055;41.884;12.534;2023-02-27T17:38:30;12.00;99.90
33414;DHT22;60055;41.884;12.534;2023-02-27T17:40:56;12.00;99.90
33414;DHT22;60055;41.884;12.534;2023-02-27T17:43:21;11.90;99.90
33414;DHT22;60055;41.884;12.534;2023-02-27T17:45:47;11.90;99.90
33414;DHT22;60055;41.884;12.534;2023-02-27T17:48:13;11.90;99.90
33414;DHT22;60055;41.884;12.534;2023-02-27T17:50:38;12.00;99.90
33414;DHT22;60055;41.884;12.534;2023-02-27T17:53:04;11.80;99.90
33414;DHT22;60055;41.884;12.534;2023-02-27T17:55:30;11.80;99.90
33414;DHT22;60055;41.884;12.534;2023-02-27T17:57:56;11.80;99.90
33414;DHT22;60055;41.884;12.534;2023-02-27T18:00:21;11.70;99.90
33414;DHT22;60055;41.884;12.534;2023-02-27T18:02:48;11.70;99.90
33414;DHT22;60055;41.884;12.534;2023-02-27T18:05:14;11.70;99.90
33414;DHT22;60055;41.884;12.534;2023-02-27T18:07:39;11.80;99.90
33414;DHT22;60055;41.884;12.534;2023-02-27T18:10:07;11.80;99.90